createdAt,value
2018-11-06T00:00:22.385Z,91.29
2018-11-06T00:01:22.362Z,91.91
2018-11-06T00:02:22.370Z,91.29
2018-11-06T00:03:22.365Z,91.44
2018-11-06T00:04:22.343Z,90.41
2018-11-06T00:05:22.384Z,90.37
2018-11-06T00:06:22.319Z,90.88
2018-11-06T00:07:22.364Z,90.21
2018-11-06T00:08:22.298Z,91.50
2018-11-06T00:09:25.412Z,91.44
2018-11-06T00:10:22.325Z,91.33
2018-11-06T00:11:22.277Z,91.19
2018-11-06T00:12:22.481Z,91.23
2018-11-06T00:13:22.311Z,92.46
2018-11-06T00:14:22.370Z,92.15
2018-11-06T00:15:22.774Z,93.01
2018-11-06T00:16:22.214Z,92.25
2018-11-06T00:17:22.193Z,92.30
2018-11-06T00:18:22.180Z,93.01
2018-11-06T00:19:22.176Z,92.71
2018-11-06T00:20:22.184Z,92.19
2018-11-06T00:21:22.179Z,91.95
2018-11-06T00:22:22.881Z,92.77
2018-11-06T00:23:22.126Z,91.54
2018-11-06T00:24:22.120Z,90.68
2018-11-06T00:25:22.187Z,89.76
2018-11-06T00:26:22.142Z,90.17
2018-11-06T00:27:22.136Z,90.58
2018-11-06T00:28:22.105Z,89.51
2018-11-06T00:29:22.123Z,89.82
2018-11-06T00:30:22.051Z,89.11
2018-11-06T00:31:22.348Z,89.11
2018-11-06T00:32:22.060Z,89.11
2018-11-06T00:33:22.030Z,89.51
2018-11-06T00:34:22.086Z,89.31
2018-11-06T00:35:21.995Z,88.79
2018-11-06T00:36:22.000Z,89.31
2018-11-06T00:37:22.213Z,89.20
2018-11-06T00:38:22.461Z,88.49
2018-11-06T00:39:22.027Z,87.43
2018-11-06T00:40:22.091Z,88.85
2018-11-06T00:41:21.959Z,88.04
2018-11-06T00:42:22.097Z,89.47
2018-11-06T00:43:22.014Z,88.35
2018-11-06T00:44:21.902Z,88.08
2018-11-06T00:45:21.909Z,88.29
2018-11-06T00:46:21.873Z,88.24
2018-11-06T00:47:21.879Z,87.77
2018-11-06T00:48:21.848Z,87.88
2018-11-06T00:49:21.915Z,88.08
2018-11-06T00:50:23.237Z,87.84
2018-11-06T00:51:21.894Z,87.53
2018-11-06T00:52:21.814Z,87.98
2018-11-06T00:53:21.799Z,88.08
2018-11-06T00:54:21.842Z,88.18
2018-11-06T00:55:21.824Z,87.67
2018-11-06T00:56:21.904Z,87.43
2018-11-06T00:57:21.893Z,87.94
2018-11-06T00:58:21.741Z,87.94
2018-11-06T00:59:21.776Z,87.77
2018-11-06T01:00:21.715Z,87.53
2018-11-06T01:01:22.166Z,87.63
2018-11-06T01:02:21.715Z,87.57
2018-11-06T01:03:21.716Z,87.53
2018-11-06T01:04:21.918Z,87.63
2018-11-06T01:05:21.675Z,87.37
2018-11-06T01:06:21.660Z,87.57
2018-11-06T01:07:21.666Z,87.47
2018-11-06T01:08:21.943Z,87.57
2018-11-06T01:09:21.622Z,87.71
2018-11-06T01:10:22.069Z,87.57
2018-11-06T01:11:21.600Z,87.61
2018-11-06T01:12:21.947Z,89.56
2018-11-06T01:13:21.579Z,88.12
2018-11-06T01:14:21.616Z,89.25
2018-11-06T01:15:21.636Z,89.18
2018-11-06T01:16:21.562Z,88.98
2018-11-06T01:17:21.676Z,89.39
2018-11-06T01:18:21.533Z,89.59
2018-11-06T01:19:21.528Z,90.25
2018-11-06T01:20:21.498Z,89.53
2018-11-06T01:21:21.492Z,90.11
2018-11-06T01:22:21.508Z,90.11
2018-11-06T01:23:21.465Z,89.43
2018-11-06T01:24:21.467Z,90.15
2018-11-06T01:25:21.458Z,89.84
2018-11-06T01:26:21.507Z,91.27
2018-11-06T01:27:21.451Z,90.56
2018-11-06T01:28:21.422Z,90.66
2018-11-06T01:29:21.401Z,90.56
2018-11-06T01:30:21.389Z,90.45
2018-11-06T01:31:21.385Z,91.11
2018-11-06T01:32:21.836Z,90.19
2018-11-06T01:33:21.455Z,90.39
2018-11-06T01:34:21.470Z,90.05
2018-11-06T01:35:21.393Z,90.05
2018-11-06T01:36:21.424Z,89.84
2018-11-06T01:37:22.223Z,90.15
2018-11-06T01:38:21.307Z,90.25
2018-11-06T01:39:21.490Z,90.91
2018-11-06T01:40:21.356Z,91.11
2018-11-06T01:41:21.405Z,91.31
2018-11-06T01:42:21.361Z,91.01
2018-11-06T01:43:21.249Z,91.01
2018-11-06T01:44:21.409Z,90.56
2018-11-06T01:45:21.322Z,90.81
2018-11-06T01:46:21.294Z,90.19
2018-11-06T01:47:21.248Z,90.19
2018-11-06T01:48:21.268Z,91.52
2018-11-06T01:49:21.272Z,90.81
2018-11-06T01:50:21.310Z,91.42
2018-11-06T01:51:21.169Z,91.93
2018-11-06T01:52:21.189Z,91.46
2018-11-06T01:53:21.145Z,91.56
2018-11-06T01:54:21.132Z,90.75
2018-11-06T01:55:21.136Z,92.02
2018-11-06T01:56:21.106Z,92.53
2018-11-06T01:57:21.125Z,92.38
2018-11-06T01:58:21.088Z,92.08
2018-11-06T01:59:21.078Z,91.56
2018-11-06T02:00:21.067Z,91.56
2018-11-06T02:01:21.091Z,91.56
2018-11-06T02:02:21.143Z,91.87
2018-11-06T02:03:21.032Z,91.97
2018-11-06T02:04:21.068Z,91.50
2018-11-06T02:05:21.013Z,92.22
2018-11-06T02:06:21.003Z,92.22
2018-11-06T02:07:20.989Z,92.83
2018-11-06T02:08:20.988Z,93.19
2018-11-06T02:09:20.999Z,93.60
2018-11-06T02:10:20.958Z,92.74
2018-11-06T02:11:21.226Z,92.49
2018-11-06T02:12:20.942Z,92.94
2018-11-06T02:13:20.930Z,92.08
2018-11-06T02:14:20.911Z,92.38
2018-11-06T02:15:20.925Z,91.26
2018-11-06T02:16:21.176Z,90.95
2018-11-06T02:17:20.910Z,90.95
2018-11-06T02:18:20.946Z,91.67
2018-11-06T02:19:20.882Z,91.82
2018-11-06T02:20:21.419Z,92.74
2018-11-06T02:21:20.864Z,92.32
2018-11-06T02:22:21.038Z,92.32
2018-11-06T02:23:20.811Z,92.12
2018-11-06T02:24:20.798Z,92.53
2018-11-06T02:25:20.794Z,92.57
2018-11-06T02:26:20.847Z,93.08
2018-11-06T02:27:21.197Z,93.60
2018-11-06T02:28:20.766Z,93.49
2018-11-06T02:29:20.776Z,94.26
2018-11-06T02:30:20.734Z,94.15
2018-11-06T02:31:20.725Z,94.26
2018-11-06T02:32:20.807Z,94.36
2018-11-06T02:33:20.706Z,94.51
2018-11-06T02:34:20.969Z,94.30
2018-11-06T02:35:21.206Z,95.17
2018-11-06T02:36:20.677Z,95.27
2018-11-06T02:37:20.681Z,96.30
2018-11-06T02:38:20.645Z,96.87
2018-11-06T02:39:20.638Z,96.15
2018-11-06T02:40:20.644Z,96.15
2018-11-06T02:41:20.622Z,95.23
2018-11-06T02:42:20.855Z,94.30
2018-11-06T02:43:20.607Z,94.40
2018-11-06T02:44:20.608Z,94.92
2018-11-06T02:45:20.612Z,95.27
2018-11-06T02:46:20.578Z,95.78
2018-11-06T02:47:20.553Z,96.19
2018-11-06T02:48:20.557Z,96.40
2018-11-06T02:49:20.558Z,97.06
2018-11-06T02:50:20.590Z,96.91
2018-11-06T02:51:20.531Z,96.95
2018-11-06T02:52:20.537Z,96.95
2018-11-06T02:53:20.487Z,97.37
2018-11-06T02:54:20.476Z,97.63
2018-11-06T02:55:20.466Z,97.07
2018-11-06T02:56:20.479Z,96.00
2018-11-06T02:57:20.440Z,95.49
2018-11-06T02:58:20.426Z,94.98
2018-11-06T02:59:20.425Z,94.52
2018-11-06T03:00:20.426Z,94.11
2018-11-06T03:01:20.396Z,93.19
2018-11-06T03:02:20.409Z,92.53
2018-11-06T03:03:20.371Z,91.87
2018-11-06T03:04:20.370Z,91.26
2018-11-06T03:05:20.372Z,91.46
2018-11-06T03:06:20.348Z,91.67
2018-11-06T03:07:20.367Z,91.42
2018-11-06T03:08:20.321Z,90.50
2018-11-06T03:09:20.326Z,90.39
2018-11-06T03:10:20.319Z,90.36
2018-11-06T03:11:20.311Z,90.15
2018-11-06T03:12:20.306Z,89.59
2018-11-06T03:13:20.306Z,88.88
2018-11-06T03:14:20.264Z,87.85
2018-11-06T03:15:20.239Z,87.96
2018-11-06T03:16:20.232Z,87.55
2018-11-06T03:17:20.222Z,87.76
2018-11-06T03:18:20.239Z,87.45
2018-11-06T03:19:20.207Z,87.61
2018-11-06T03:20:20.198Z,87.76
2018-11-06T03:21:20.196Z,87.65
2018-11-06T03:22:20.169Z,87.76
2018-11-06T03:23:20.175Z,87.76
2018-11-06T03:24:20.144Z,87.35
2018-11-06T03:25:20.144Z,87.55
2018-11-06T03:26:20.128Z,87.35
2018-11-06T03:27:20.141Z,87.35
2018-11-06T03:28:20.142Z,87.04
2018-11-06T03:29:20.107Z,87.04
2018-11-06T03:30:20.100Z,87.65
2018-11-06T03:31:20.072Z,87.76
2018-11-06T03:32:20.060Z,87.35
2018-11-06T03:33:20.063Z,87.96
2018-11-06T03:34:20.032Z,89.33
2018-11-06T03:35:20.023Z,88.31
2018-11-06T03:36:20.012Z,89.53
2018-11-06T03:37:20.036Z,89.33
2018-11-06T03:38:20.012Z,89.68
2018-11-06T03:39:20.009Z,89.37
2018-11-06T03:40:19.988Z,89.68
2018-11-06T03:41:19.999Z,90.34
2018-11-06T03:42:19.971Z,89.89
2018-11-06T03:43:19.934Z,89.27
2018-11-06T03:44:19.949Z,89.89
2018-11-06T03:45:19.922Z,89.68
2018-11-06T03:46:19.907Z,89.58
2018-11-06T03:47:19.918Z,89.98
2018-11-06T03:48:19.887Z,89.89
2018-11-06T03:49:19.875Z,89.27
2018-11-06T03:50:19.892Z,89.58
2018-11-06T03:51:19.893Z,89.74
2018-11-06T03:52:19.876Z,89.37
2018-11-06T03:53:19.847Z,89.37
2018-11-06T03:54:19.851Z,89.98
2018-11-06T03:55:19.806Z,89.47
2018-11-06T03:56:19.798Z,89.58
2018-11-06T03:57:19.829Z,89.72
2018-11-06T03:58:19.823Z,89.83
2018-11-06T03:59:19.810Z,89.47
2018-11-06T04:00:19.826Z,90.03
2018-11-06T04:01:19.740Z,89.92
2018-11-06T04:02:19.775Z,90.03
2018-11-06T04:03:19.811Z,89.42
2018-11-06T04:04:19.721Z,89.51
2018-11-06T04:05:19.727Z,89.98
2018-11-06T04:06:19.686Z,89.47
2018-11-06T04:07:19.701Z,88.04
2018-11-06T04:08:19.706Z,89.17
2018-11-06T04:09:19.657Z,89.17
2018-11-06T04:10:19.647Z,89.89
2018-11-06T04:11:19.635Z,89.51
2018-11-06T04:12:19.641Z,89.72
2018-11-06T04:13:19.609Z,90.03
2018-11-06T04:14:19.599Z,90.37
2018-11-06T04:15:19.588Z,90.58
2018-11-06T04:16:19.600Z,91.44
2018-11-06T04:17:19.572Z,92.06
2018-11-06T04:18:19.573Z,91.55
2018-11-06T04:19:19.551Z,92.27
2018-11-06T04:20:19.562Z,92.16
2018-11-06T04:21:19.527Z,92.88
2018-11-06T04:22:19.537Z,91.75
2018-11-06T04:23:19.503Z,92.68
2018-11-06T04:24:19.494Z,92.78
2018-11-06T04:25:19.483Z,92.82
2018-11-06T04:26:19.502Z,92.57
2018-11-06T04:27:19.468Z,92.82
2018-11-06T04:28:19.494Z,92.82
2018-11-06T04:29:19.473Z,92.93
2018-11-06T04:30:19.427Z,92.41
2018-11-06T04:31:19.418Z,93.02
2018-11-06T04:32:19.424Z,92.51
2018-11-06T04:33:19.390Z,92.61
2018-11-06T04:34:19.391Z,92.51
2018-11-06T04:35:19.374Z,93.23
2018-11-06T04:36:19.373Z,93.13
2018-11-06T04:37:19.390Z,93.02
2018-11-06T04:38:19.340Z,93.27
2018-11-06T04:39:19.328Z,93.38
2018-11-06T04:40:19.313Z,94.20
2018-11-06T04:41:19.310Z,94.34
2018-11-06T04:42:19.316Z,94.30
2018-11-06T04:43:19.290Z,94.24
2018-11-06T04:44:19.304Z,94.24
2018-11-06T04:45:19.261Z,94.14
2018-11-06T04:46:19.250Z,94.85
2018-11-06T04:47:19.263Z,95.17
2018-11-06T04:48:19.226Z,95.06
2018-11-06T04:49:19.752Z,95.47
2018-11-06T04:50:19.227Z,95.57
2018-11-06T04:51:19.196Z,95.27
2018-11-06T04:52:19.200Z,94.92
2018-11-06T04:53:19.188Z,94.76
2018-11-06T04:54:19.167Z,93.38
2018-11-06T04:55:19.164Z,93.44
2018-11-06T04:56:19.150Z,93.33
2018-11-06T04:57:19.144Z,92.72
2018-11-06T04:58:19.152Z,92.41
2018-11-06T04:59:19.108Z,92.31
2018-11-06T05:00:19.094Z,92.61
2018-11-06T05:01:19.091Z,92.82
2018-11-06T05:02:19.078Z,92.82
2018-11-06T05:03:19.085Z,92.82
2018-11-06T05:04:19.058Z,93.13
2018-11-06T05:05:19.084Z,92.55
2018-11-06T05:06:19.035Z,92.86
2018-11-06T05:07:19.024Z,93.52
2018-11-06T05:08:19.016Z,94.34
2018-11-06T05:09:19.026Z,94.24
2018-11-06T05:10:18.990Z,94.40
2018-11-06T05:11:19.218Z,93.17
2018-11-06T05:12:18.982Z,92.51
2018-11-06T05:13:18.977Z,92.10
2018-11-06T05:14:19.077Z,91.65
2018-11-06T05:15:18.945Z,91.75
2018-11-06T05:16:18.928Z,92.61
2018-11-06T05:17:18.910Z,92.21
2018-11-06T05:18:18.923Z,91.74
2018-11-06T05:19:18.889Z,92.60
2018-11-06T05:20:18.898Z,93.52
2018-11-06T05:21:18.873Z,93.57
2018-11-06T05:22:18.899Z,94.39
2018-11-06T05:23:18.865Z,95.42
2018-11-06T05:24:18.833Z,95.42
2018-11-06T05:25:18.873Z,95.97
2018-11-06T05:26:18.817Z,96.59
2018-11-06T05:27:18.861Z,96.59
2018-11-06T05:28:18.814Z,97.00
2018-11-06T05:29:18.779Z,97.52
2018-11-06T05:30:18.773Z,97.56
2018-11-06T05:31:18.776Z,97.25
2018-11-06T05:32:18.766Z,97.20
2018-11-06T05:33:18.742Z,97.82
2018-11-06T05:34:18.737Z,97.57
2018-11-06T05:35:18.751Z,97.57
2018-11-06T05:36:18.734Z,97.16
2018-11-06T05:37:18.691Z,97.16
2018-11-06T05:38:18.682Z,97.16
2018-11-06T05:39:18.689Z,96.95
2018-11-06T05:40:18.703Z,96.91
2018-11-06T05:41:18.647Z,97.27
2018-11-06T05:42:18.655Z,97.27
2018-11-06T05:43:18.627Z,97.32
2018-11-06T05:44:18.626Z,97.12
2018-11-06T05:45:18.628Z,96.30
2018-11-06T05:46:18.604Z,95.98
2018-11-06T05:47:18.603Z,95.32
2018-11-06T05:48:18.584Z,95.23
2018-11-06T05:49:18.560Z,93.74
2018-11-06T05:50:18.555Z,93.95
2018-11-06T05:51:18.540Z,94.15
2018-11-06T05:52:18.551Z,93.19
2018-11-06T05:53:18.590Z,92.98
2018-11-06T05:54:18.510Z,92.88
2018-11-06T05:55:18.498Z,92.82
2018-11-06T05:56:18.483Z,92.72
2018-11-06T05:57:18.485Z,92.72
2018-11-06T05:58:18.493Z,93.54
2018-11-06T05:59:18.468Z,93.33
2018-11-06T06:00:18.488Z,93.54
2018-11-06T06:01:18.447Z,92.93
2018-11-06T06:02:18.420Z,93.33
2018-11-06T06:03:18.426Z,92.93
2018-11-06T06:04:18.411Z,93.54
2018-11-06T06:05:18.404Z,92.72
2018-11-06T06:06:18.378Z,92.57
2018-11-06T06:07:18.384Z,92.68
2018-11-06T06:08:18.391Z,92.47
2018-11-06T06:09:18.348Z,92.61
2018-11-06T06:10:18.335Z,92.61
2018-11-06T06:11:18.478Z,92.93
2018-11-06T06:12:18.335Z,93.33
2018-11-06T06:13:18.340Z,93.13
2018-11-06T06:14:18.290Z,93.02
2018-11-06T06:15:18.282Z,92.72
2018-11-06T06:16:18.387Z,92.82
2018-11-06T06:17:18.368Z,93.13
2018-11-06T06:18:18.710Z,92.51
2018-11-06T06:19:18.240Z,92.16
2018-11-06T06:20:18.244Z,92.47
2018-11-06T06:21:18.210Z,92.06
2018-11-06T06:22:18.206Z,92.61
2018-11-06T06:23:18.218Z,93.02
2018-11-06T06:24:18.197Z,93.23
2018-11-06T06:25:18.205Z,92.82
2018-11-06T06:26:18.160Z,93.54
2018-11-06T06:27:18.159Z,92.76
2018-11-06T06:28:18.198Z,93.48
2018-11-06T06:29:18.159Z,93.99
2018-11-06T06:30:18.117Z,93.99
2018-11-06T06:31:18.105Z,94.04
2018-11-06T06:32:18.099Z,94.76
2018-11-06T06:33:18.114Z,95.57
2018-11-06T06:34:18.107Z,94.85
2018-11-06T06:35:18.175Z,95.52
2018-11-06T06:36:18.047Z,96.75
2018-11-06T06:37:18.049Z,96.23
2018-11-06T06:38:18.047Z,96.23
2018-11-06T06:39:18.042Z,96.14
2018-11-06T06:40:18.077Z,96.23
2018-11-06T06:41:18.011Z,97.37
2018-11-06T06:42:17.985Z,97.41
2018-11-06T06:43:17.999Z,97.10
2018-11-06T06:44:17.966Z,96.95
2018-11-06T06:45:17.948Z,97.47
2018-11-06T06:46:17.995Z,96.95
2018-11-06T06:47:17.948Z,96.75
2018-11-06T06:48:17.969Z,97.06
2018-11-06T06:49:17.935Z,97.27
2018-11-06T06:50:17.908Z,96.75
2018-11-06T06:51:17.913Z,97.47
2018-11-06T06:52:17.927Z,96.95
2018-11-06T06:53:18.201Z,97.42
2018-11-06T06:54:18.028Z,97.06
2018-11-06T06:55:18.813Z,97.12
2018-11-06T06:56:17.854Z,96.91
2018-11-06T06:57:17.832Z,96.19
2018-11-06T06:58:17.909Z,96.60
2018-11-06T06:59:17.798Z,96.55
2018-11-06T07:00:17.783Z,97.06
2018-11-06T07:01:17.795Z,97.47
2018-11-06T07:02:17.810Z,97.32
2018-11-06T07:03:17.813Z,97.32
2018-11-06T07:04:17.748Z,96.81
2018-11-06T07:05:17.743Z,97.22
2018-11-06T07:06:17.758Z,97.37
2018-11-06T07:07:17.711Z,97.02
2018-11-06T07:08:17.698Z,96.30
2018-11-06T07:09:17.732Z,96.50
2018-11-06T07:10:17.707Z,96.40
2018-11-06T07:11:17.667Z,97.42
2018-11-06T07:12:17.663Z,96.81
2018-11-06T07:13:17.672Z,97.02
2018-11-06T07:14:17.650Z,97.02
2018-11-06T07:15:17.627Z,96.40
2018-11-06T07:16:17.622Z,96.35
2018-11-06T07:17:17.597Z,96.40
2018-11-06T07:18:17.591Z,95.53
2018-11-06T07:19:17.617Z,96.04
2018-11-06T07:20:17.582Z,95.53
2018-11-06T07:21:17.561Z,94.51
2018-11-06T07:22:17.548Z,95.43
2018-11-06T07:23:17.537Z,95.12
2018-11-06T07:24:17.541Z,94.77
2018-11-06T07:25:17.558Z,94.20
2018-11-06T07:26:17.502Z,94.81
2018-11-06T07:27:17.494Z,95.12
2018-11-06T07:28:17.489Z,95.12
2018-11-06T07:29:17.509Z,95.18
2018-11-06T07:30:17.535Z,96.15
2018-11-06T07:31:17.474Z,95.74
2018-11-06T07:32:17.435Z,94.92
2018-11-06T07:33:17.455Z,96.25
2018-11-06T07:34:17.421Z,95.53
2018-11-06T07:35:17.528Z,96.15
2018-11-06T07:36:17.447Z,95.49
2018-11-06T07:37:17.385Z,94.15
2018-11-06T07:38:17.403Z,95.07
2018-11-06T07:39:17.449Z,93.95
2018-11-06T07:40:17.361Z,93.95
2018-11-06T07:41:17.483Z,94.15
2018-11-06T07:42:17.365Z,94.56
2018-11-06T07:43:17.361Z,95.07
2018-11-06T07:44:17.312Z,95.28
2018-11-06T07:45:17.297Z,94.98
2018-11-06T07:46:17.286Z,95.69
2018-11-06T07:47:17.301Z,95.49
2018-11-06T07:48:17.270Z,94.93
2018-11-06T07:49:17.250Z,94.21
2018-11-06T07:50:17.308Z,93.49
2018-11-06T07:51:17.231Z,92.47
2018-11-06T07:52:17.218Z,92.53
2018-11-06T07:53:17.233Z,92.57
2018-11-06T07:54:17.232Z,92.83
2018-11-06T07:55:17.191Z,92.12
2018-11-06T07:56:17.237Z,92.12
2018-11-06T07:57:17.178Z,91.61
2018-11-06T07:58:17.186Z,92.63
2018-11-06T07:59:17.155Z,92.69
2018-11-06T08:00:17.131Z,92.49
2018-11-06T08:01:17.129Z,92.79
2018-11-06T08:02:17.134Z,92.59
2018-11-06T08:03:17.152Z,92.90
2018-11-06T08:04:17.136Z,92.28
2018-11-06T08:05:17.095Z,92.38
2018-11-06T08:06:17.081Z,92.79
2018-11-06T08:07:17.059Z,93.37
2018-11-06T08:08:17.050Z,92.69
2018-11-06T08:09:17.053Z,92.44
2018-11-06T08:10:17.041Z,92.14
2018-11-06T08:11:17.029Z,91.93
2018-11-06T08:12:17.023Z,91.31
2018-11-06T08:13:16.999Z,90.50
2018-11-06T08:14:17.010Z,91.01
2018-11-06T08:15:17.094Z,90.15
2018-11-06T08:16:16.993Z,89.53
2018-11-06T08:17:16.982Z,90.15
2018-11-06T08:18:16.987Z,90.25
2018-11-06T08:19:16.975Z,89.94
2018-11-06T08:20:17.004Z,90.56
2018-11-06T08:21:17.021Z,90.52
2018-11-06T08:22:16.898Z,90.31
2018-11-06T08:23:16.964Z,90.11
2018-11-06T08:24:17.078Z,90.21
2018-11-06T08:25:16.991Z,89.35
2018-11-06T08:26:16.870Z,88.23
2018-11-06T08:27:16.941Z,89.15
2018-11-06T08:28:17.067Z,87.57
2018-11-06T08:29:16.877Z,87.67
2018-11-06T08:30:16.923Z,89.41
2018-11-06T08:31:17.214Z,86.51
2018-11-06T08:32:17.134Z,87.53
2018-11-06T08:33:16.806Z,86.67
2018-11-06T08:34:16.768Z,86.06
2018-11-06T08:35:16.765Z,87.29
2018-11-06T08:36:16.826Z,88.98
2018-11-06T08:37:16.735Z,88.98
2018-11-06T08:38:16.720Z,87.35
2018-11-06T08:39:16.721Z,86.29
2018-11-06T08:40:16.699Z,87.10
2018-11-06T08:41:16.681Z,85.57
2018-11-06T08:42:16.748Z,86.39
2018-11-06T08:43:16.675Z,86.59
2018-11-06T08:44:16.649Z,86.15
2018-11-06T08:45:16.644Z,85.63
2018-11-06T08:46:16.631Z,85.84
2018-11-06T08:47:16.638Z,85.02
2018-11-06T08:48:16.654Z,85.53
2018-11-06T08:49:16.619Z,85.63
2018-11-06T08:50:16.589Z,85.02
2018-11-06T08:51:16.609Z,85.60
2018-11-06T08:52:16.567Z,85.19
2018-11-06T08:53:16.560Z,84.78
2018-11-06T08:54:16.564Z,83.96
2018-11-06T08:55:16.537Z,83.01
2018-11-06T08:56:16.521Z,83.01
2018-11-06T08:57:16.531Z,81.17
2018-11-06T08:58:16.539Z,81.17
2018-11-06T08:59:16.495Z,81.24
2018-11-06T09:00:16.479Z,81.54
2018-11-06T09:01:16.467Z,80.97
2018-11-06T09:02:16.477Z,81.13
2018-11-06T09:03:16.461Z,81.13
2018-11-06T09:04:16.429Z,82.21
2018-11-06T09:05:16.455Z,81.71
2018-11-06T09:06:16.415Z,82.12
2018-11-06T09:07:16.397Z,81.71
2018-11-06T09:08:16.460Z,81.10
2018-11-06T09:09:16.431Z,81.71
2018-11-06T09:10:16.436Z,82.62
2018-11-06T09:11:16.391Z,82.62
2018-11-06T09:12:16.477Z,82.21
2018-11-06T09:13:16.422Z,82.59
2018-11-06T09:14:16.358Z,82.68
2018-11-06T09:15:16.448Z,82.85
2018-11-06T09:16:16.296Z,82.54
2018-11-06T09:17:16.456Z,82.85
2018-11-06T09:18:16.298Z,80.98
2018-11-06T09:19:16.270Z,80.68
2018-11-06T09:20:16.288Z,77.09
2018-11-06T09:21:16.239Z,75.36
2018-11-06T09:22:16.231Z,77.59
2018-11-06T09:23:16.243Z,77.76
2018-11-06T09:24:16.215Z,77.05
2018-11-06T09:25:16.200Z,77.97
2018-11-06T09:26:16.185Z,78.64
2018-11-06T09:27:16.174Z,75.79
2018-11-06T09:28:16.189Z,74.88
2018-11-06T09:29:16.161Z,75.70
2018-11-06T09:30:16.143Z,74.85
2018-11-06T09:31:16.145Z,75.66
2018-11-06T09:32:16.125Z,78.40
2018-11-06T09:33:16.106Z,76.47
2018-11-06T09:34:16.115Z,76.87
2018-11-06T09:35:16.178Z,76.98
2018-11-06T09:36:16.118Z,78.80
2018-11-06T09:38:16.058Z,77.99
2018-11-06T09:39:16.065Z,75.90
2018-11-06T09:40:16.030Z,76.91
2018-11-06T09:41:16.088Z,76.71
2018-11-06T09:42:16.014Z,78.53
2018-11-06T09:43:16.027Z,77.18
2018-11-06T09:44:15.993Z,76.37
2018-11-06T09:45:15.982Z,76.98
2018-11-06T09:46:15.967Z,77.48
2018-11-06T09:47:15.978Z,80.83
2018-11-06T09:48:15.961Z,81.74
2018-11-06T09:49:15.948Z,78.03
2018-11-06T09:50:15.925Z,79.75
2018-11-06T09:51:15.917Z,82.70
2018-11-06T09:52:15.906Z,82.39
2018-11-06T09:53:15.921Z,80.66
2018-11-06T09:54:15.879Z,80.06
2018-11-06T09:55:15.874Z,79.85
2018-11-06T09:56:15.872Z,80.26
2018-11-06T09:57:15.878Z,79.85
2018-11-06T09:58:15.844Z,78.53
2018-11-06T09:59:15.866Z,79.75
2018-11-06T10:00:15.857Z,81.18
2018-11-06T10:01:15.840Z,81.68
2018-11-06T10:02:15.803Z,81.58
2018-11-06T10:03:15.836Z,82.59
2018-11-06T10:04:15.802Z,83.06
2018-11-06T10:05:15.756Z,83.57
2018-11-06T10:06:15.844Z,81.13
2018-11-06T10:07:16.102Z,80.22
2018-11-06T10:08:15.734Z,80.32
2018-11-06T10:09:15.767Z,82.66
2018-11-06T10:10:15.728Z,80.32
2018-11-06T10:11:15.692Z,81.44
2018-11-06T10:12:15.695Z,80.79
2018-11-06T10:13:15.704Z,81.50
2018-11-06T10:14:15.715Z,82.28
2018-11-06T10:15:15.649Z,82.68
2018-11-06T10:16:15.649Z,82.84
2018-11-06T10:17:15.663Z,81.73
2018-11-06T10:18:15.660Z,79.50
2018-11-06T10:19:15.606Z,77.84
2018-11-06T10:20:15.608Z,76.93
2018-11-06T10:21:15.649Z,77.64
2018-11-06T10:22:15.574Z,75.28
2018-11-06T10:23:16.868Z,77.20
2018-11-06T10:24:15.555Z,75.68
2018-11-06T10:25:15.563Z,77.47
2018-11-06T10:26:15.531Z,75.75
2018-11-06T10:27:15.546Z,72.11
2018-11-06T10:28:15.514Z,74.84
2018-11-06T10:29:15.495Z,71.50
2018-11-06T10:30:15.508Z,73.79
2018-11-06T10:31:15.496Z,74.70
2018-11-06T10:32:15.466Z,71.53
2018-11-06T10:33:15.456Z,69.08
2018-11-06T10:34:15.443Z,69.38
2018-11-06T10:35:15.449Z,69.48
2018-11-06T10:36:15.454Z,67.56
2018-11-06T10:37:15.405Z,68.67
2018-11-06T10:38:15.467Z,70.39
2018-11-06T10:39:15.425Z,70.66
2018-11-06T10:40:15.375Z,68.95
2018-11-06T10:41:15.387Z,69.24
2018-11-06T10:42:15.357Z,69.15
2018-11-06T10:43:15.341Z,68.84
2018-11-06T10:44:15.328Z,68.91
2018-11-06T10:45:15.332Z,68.21
2018-11-06T10:46:15.336Z,67.33
2018-11-06T10:47:15.301Z,67.93
2018-11-06T10:48:15.314Z,66.79
2018-11-06T10:49:15.308Z,68.10
2018-11-06T10:50:15.267Z,68.41
2018-11-06T10:51:15.252Z,67.27
2018-11-06T10:52:15.261Z,67.67
2018-11-06T10:53:15.237Z,69.18
2018-11-06T10:54:15.242Z,68.37
2018-11-06T10:55:15.209Z,67.10
2018-11-06T10:56:15.201Z,68.30
2018-11-06T10:57:15.200Z,67.60
2018-11-06T10:58:15.213Z,66.56
2018-11-06T10:59:15.192Z,67.47
2018-11-06T11:00:15.155Z,68.57
2018-11-06T11:01:15.140Z,69.05
2018-11-06T11:02:15.129Z,66.76
2018-11-06T11:03:15.120Z,67.47
2018-11-06T11:04:15.255Z,68.17
2018-11-06T11:05:15.101Z,67.36
2018-11-06T11:06:15.105Z,69.89
2018-11-06T11:07:15.076Z,68.57
2018-11-06T11:08:15.076Z,71.80
2018-11-06T11:09:15.081Z,69.92
2018-11-06T11:10:15.041Z,72.14
2018-11-06T11:11:15.032Z,71.84
2018-11-06T11:12:15.030Z,71.64
2018-11-06T11:13:15.066Z,72.04
2018-11-06T11:14:15.001Z,70.02
2018-11-06T11:15:15.011Z,68.10
2018-11-06T11:16:15.005Z,68.81
2018-11-06T11:17:14.998Z,68.44
2018-11-06T11:18:14.983Z,67.53
2018-11-06T11:19:14.995Z,68.04
2018-11-06T11:20:15.087Z,68.10
2018-11-06T11:21:14.946Z,68.41
2018-11-06T11:22:14.916Z,68.21
2018-11-06T11:23:14.922Z,68.10
2018-11-06T11:24:14.885Z,70.02
2018-11-06T11:25:14.899Z,68.81
2018-11-06T11:26:14.873Z,69.95
2018-11-06T11:27:14.877Z,70.56
2018-11-06T11:28:14.853Z,68.54
2018-11-06T11:29:14.858Z,70.56
2018-11-06T11:30:14.836Z,71.97
2018-11-06T11:31:14.844Z,73.05
2018-11-06T11:32:14.811Z,70.12
2018-11-06T11:33:14.852Z,69.92
2018-11-06T11:34:14.836Z,69.31
2018-11-06T11:35:14.839Z,71.94
2018-11-06T11:36:14.755Z,71.30
2018-11-06T11:37:14.751Z,72.41
2018-11-06T11:38:14.742Z,71.50
2018-11-06T11:39:14.727Z,69.85
2018-11-06T11:40:14.742Z,72.38
2018-11-06T11:41:14.728Z,71.47
2018-11-06T11:42:14.690Z,70.86
2018-11-06T11:43:14.681Z,70.15
2018-11-06T11:44:14.683Z,70.53
2018-11-06T11:45:14.665Z,67.94
2018-11-06T11:46:14.651Z,69.01
2018-11-06T11:47:14.635Z,69.01
2018-11-06T11:48:14.622Z,68.31
2018-11-06T11:49:14.637Z,68.11
2018-11-06T11:50:14.633Z,68.81
2018-11-06T11:51:14.595Z,71.44
2018-11-06T11:52:14.586Z,68.61
2018-11-06T11:53:14.570Z,68.71
2018-11-06T11:54:14.561Z,68.88
2018-11-06T11:55:14.547Z,69.59
2018-11-06T11:56:14.554Z,69.18
2018-11-06T11:57:14.533Z,68.71
2018-11-06T11:58:14.544Z,70.22
2018-11-06T11:59:14.507Z,70.02
2018-11-06T12:00:14.650Z,68.71
2018-11-06T12:01:14.695Z,70.93
2018-11-06T12:02:14.508Z,70.73
2018-11-06T12:03:14.469Z,71.13
2018-11-06T12:04:14.470Z,69.82
2018-11-06T12:05:14.435Z,70.83
2018-11-06T12:06:14.428Z,70.83
2018-11-06T12:07:14.432Z,71.23
2018-11-06T12:08:14.422Z,71.91
2018-11-06T12:09:14.404Z,68.98
2018-11-06T12:10:14.388Z,70.79
2018-11-06T12:11:14.373Z,70.09
2018-11-06T12:12:14.384Z,70.09
2018-11-06T12:13:14.381Z,69.38
2018-11-06T12:14:14.354Z,69.65
2018-11-06T12:15:14.329Z,68.65
2018-11-06T12:16:14.315Z,69.89
2018-11-06T12:17:14.318Z,69.79
2018-11-06T12:18:14.384Z,68.98
2018-11-06T12:19:14.316Z,69.79
2018-11-06T12:20:14.301Z,68.48
2018-11-06T12:21:14.292Z,67.47
2018-11-06T12:22:14.291Z,70.70
2018-11-06T12:23:14.318Z,69.79
2018-11-06T12:24:14.470Z,71.00
2018-11-06T12:25:14.501Z,69.09
2018-11-06T12:26:14.208Z,70.06
2018-11-06T12:27:14.207Z,70.06
2018-11-06T12:28:14.191Z,69.35
2018-11-06T12:29:14.179Z,68.85
2018-11-06T12:30:14.169Z,69.65
2018-11-06T12:31:14.182Z,70.16
2018-11-06T12:32:14.150Z,68.65
2018-11-06T12:33:14.132Z,68.44
2018-11-06T12:34:14.119Z,67.84
2018-11-06T12:35:14.115Z,67.54
2018-11-06T12:36:14.106Z,70.96
2018-11-06T12:37:14.109Z,67.94
2018-11-06T12:38:14.080Z,67.41
2018-11-06T12:39:14.079Z,68.62
2018-11-06T12:40:14.056Z,67.91
2018-11-06T12:41:14.053Z,69.72
2018-11-06T12:42:14.060Z,68.21
2018-11-06T12:43:14.153Z,68.21
2018-11-06T12:44:14.047Z,68.31
2018-11-06T12:45:14.010Z,68.11
2018-11-06T12:46:13.990Z,69.79
2018-11-06T12:47:14.003Z,68.31
2018-11-06T12:48:13.972Z,66.80
2018-11-06T12:49:13.966Z,68.68
2018-11-06T12:50:13.977Z,69.22
2018-11-06T12:51:13.934Z,69.12
2018-11-06T12:52:13.925Z,68.21
2018-11-06T12:53:13.936Z,68.28